Богдановское

Карта отелей и гостиниц, располагающихся рядом с аэропортом Богдановское :

Богдановское Челябинская область 52° 25' 16.068" N, 59° 2' 49.812" E
Богдановское Челябинская область 52° 25' 16.068" N, 59° 2' 49.812" E
Код аэродрома ИКАО: 
ZE59
Код аэродрома RU: 
ЗЕ59
Координаты: 
N52.42113° E059.04717°
Превышение над уровнем моря : 
320
Основная полоса: 
02/20
Курс магнитный: 
015,1/195,1
Длина основной ВПП: 
600
Ширина основной ВПП: 
100
Покрытие основной ВПП: 
Нетвёрдое (грунт)
Тип: 
Аэродром
Освещение ВПП: 
Нет
Класс аэродрома: 
Статус: 
Недействующий
Принадлежность: 
ГА
Сайт: 
E-mail аэродрома: 
Страна: 
Россия
Регион: 
Челябинская область
Город: 
Дополнительная информация: 
По данным Сборника №2 АНИ по МВЛ Уральского управления ГА (изд. 1981)

Найти трансфер

С помощью этой формы Вы можете найти трансфер из аэропорта Богдановское в город, аэропорт или вокзал:

Карта места

Javascript is required to view this map.

Погода в аэропортах:

Авиационная погода в Москва - Внуково

Регион: 
Погода METAR: 
UUWW 141730Z 02012MPS 8000 -SHRA SCT007 BKN020CB 16/15 Q1000 R01/290245 TEMPO 1000 TSRA BKN012CB
Время наблюдения: 
2020-07-14T17:30:00Z
Температура C: 
16.0
Точка росы: 
15.0
Направление ветра: 
20
Скорость ветра: 
23
Метеорологическая видимость: 
4.97
Явления погоды: 
-SHRA
Условия полета: 
MVFR
Аэропорт подробнее: 

Авиационная погода в аэропорту Сокол

Регион: 
Погода METAR: 
UHMM 141800Z 00000MPS 0250 0200W R10/0200N FG VV002 09/08 Q0998 RMK QBB060 MT OBSC QFE734 R28/24001MPS
Время наблюдения: 
2020-07-14T18:00:00Z
Температура C: 
9.0
Точка росы: 
8.0
Направление ветра: 
0
Скорость ветра: 
0
Метеорологическая видимость: 
0.16
Явления погоды: 
FG
Условия полета: 
LIFR
Аэропорт подробнее: 

Авиационная погода в аэропорту Алыкель

Регион: 
Погода METAR: 
UOOO 141800Z 30005MPS 0300 0250S FG VV002 10/09 Q1008 R19/15//57 NOSIG RMK QFE740/0986
Время наблюдения: 
2020-07-14T18:00:00Z
Температура C: 
10.0
Точка росы: 
9.0
Направление ветра: 
300
Скорость ветра: 
10
Метеорологическая видимость: 
0.19
Явления погоды: 
FG
Условия полета: 
LIFR
Аэропорт подробнее: 

Авиационная погода в Москва - Домодедово

Регион: 
Погода METAR: 
UUDD 141730Z 04007MPS 9999 -SHRA SCT005 BKN033CB 18/16 Q0999 R32L/290042 NOSIG
Время наблюдения: 
2020-07-14T17:30:00Z
Температура C: 
18.0
Точка росы: 
16.0
Направление ветра: 
40
Скорость ветра: 
14
Метеорологическая видимость: 
6.21
Явления погоды: 
-SHRA
Условия полета: 
VFR
Аэропорт подробнее: